Terminal Aerodrome Forecast
Issued by NWS Norman, OK

Home | Current Version | Previous Version | Text Only | Print | Product List | Glossary On
Versions: 1 2 3 4 5 6 7 8 9 10 11 12 13 14 15 16 17 18 19 20 21 22 23 24 25 26
000
FTUS44 KOUN 251120
TAFOKC
TAF
KOKC 251120Z 2512/2612 16006KT P6SM VCTS BKN060CB BKN100 BKN250
      TEMPO 2512/2514 33015G30KT 4SM -TSRA BKN050CB OVC100
     FM251500 17014G19KT P6SM SCT050 SCT120 BKN200
     FM252300 15012KT P6SM BKN250 PROB30 2603/2606 3SM -TSRA
      OVC050CB=

USA.gov is the U.S. government's official web portal to all federal, state and local government web resources and services.